Time;durP1;ratioP1;P1;durP2;ratioP2;P2;SDS_P1;SDS_P2;PMS_P1;PMS_P2;Temp;Humidity;BMP_temperature;BMP_pressure;BME280_temperature;BME280_humidity;BME280_pressure;Samples;Min_cycle;Max_cycle;Signal;HPM_P1;HPM_P2
2021/09/25 00:02:00;;;;;;;4.45;3.58;;;18.00;99.90;;;;;;5113136;28;20489;-40
2021/09/25 00:04:26;;;;;;;4.68;3.35;;;18.00;99.90;;;;;;5111323;28;20501;-37
2021/09/25 00:06:52;;;;;;;3.33;2.92;;;18.10;99.90;;;;;;5113294;28;20091;-39
2021/09/25 00:09:23;;;;;;;4.53;3.05;;;18.10;99.90;;;;;;5111831;28;20012;-35
2021/09/25 00:11:49;;;;;;;4.03;3.38;;;18.10;99.90;;;;;;5112414;28;20049;-40
2021/09/25 00:14:14;;;;;;;5.10;3.25;;;18.10;99.90;;;;;;5112007;28;20538;-37
2021/09/25 00:16:49;;;;;;;5.05;3.90;;;18.10;99.90;;;;;;5112138;28;20039;-35
2021/09/25 00:19:15;;;;;;;6.18;3.47;;;18.00;99.90;;;;;;5112076;28;20012;-39
2021/09/25 00:21:41;;;;;;;4.72;3.55;;;18.00;99.90;;;;;;5112959;28;20485;-34
2021/09/25 00:24:07;;;;;;;5.10;3.53;;;18.00;99.90;;;;;;5111628;28;20381;-38
2021/09/25 00:26:33;;;;;;;6.32;3.53;;;18.00;99.90;;;;;;5111056;28;20031;-40
2021/09/25 00:28:58;;;;;;;4.05;3.53;;;18.10;99.90;;;;;;5111976;28;20015;-39
2021/09/25 00:31:24;;;;;;;4.85;3.55;;;18.10;99.90;;;;;;5111758;28;20024;-37
2021/09/25 00:33:53;;;;;;;5.03;3.85;;;18.10;99.90;;;;;;5111869;28;20032;-38
2021/09/25 00:36:21;;;;;;;4.00;2.90;;;18.00;99.90;;;;;;5112004;28;20157;-37
2021/09/25 00:38:50;;;;;;;3.47;2.70;;;18.10;99.90;;;;;;5111602;28;20023;-36
2021/09/25 00:41:15;;;;;;;3.85;2.92;;;18.10;99.90;;;;;;5088925;28;20016;-35
2021/09/25 00:43:44;;;;;;;4.63;3.42;;;18.00;99.90;;;;;;5111763;28;20032;-36
2021/09/25 00:46:13;;;;;;;3.60;2.78;;;18.00;99.90;;;;;;5111615;28;20028;-37
2021/09/25 00:48:38;;;;;;;3.92;3.10;;;18.00;99.90;;;;;;5111425;28;20023;-37
2021/09/25 00:51:04;;;;;;;5.00;2.85;;;18.00;99.90;;;;;;5111765;28;20072;-37
2021/09/25 00:53:36;;;;;;;4.07;3.15;;;18.00;99.90;;;;;;5110487;28;20027;-36
2021/09/25 00:56:02;;;;;;;3.30;3.00;;;18.00;99.90;;;;;;5111590;28;20032;-36
2021/09/25 00:58:29;;;;;;;3.28;2.70;;;18.00;99.90;;;;;;5111512;28;20031;-39
2021/09/25 01:00:54;;;;;;;2.45;2.25;;;18.00;99.90;;;;;;5110970;28;20030;-38
2021/09/25 01:03:20;;;;;;;2.80;2.60;;;18.00;99.90;;;;;;5111158;28;20028;-39
2021/09/25 01:05:48;;;;;;;6.78;2.42;;;18.00;99.90;;;;;;5111300;28;20093;-40
2021/09/25 01:08:14;;;;;;;3.08;2.60;;;18.00;99.90;;;;;;5110749;28;20027;-32
2021/09/25 01:10:41;;;;;;;4.43;3.05;;;18.00;99.90;;;;;;5111188;28;20058;-39
2021/09/25 01:13:06;;;;;;;3.20;2.90;;;18.00;99.90;;;;;;5111167;28;20020;-40
2021/09/25 01:15:32;;;;;;;6.22;2.88;;;18.00;99.90;;;;;;5110829;28;20115;-36
2021/09/25 01:17:58;;;;;;;5.95;3.17;;;18.00;99.90;;;;;;5110778;28;20047;-33
2021/09/25 01:20:27;;;;;;;5.10;3.22;;;17.90;99.90;;;;;;5110342;28;20028;-39
2021/09/25 01:22:52;;;;;;;6.03;3.20;;;17.90;99.90;;;;;;5111430;28;20031;-40
2021/09/25 01:25:18;;;;;;;3.80;2.63;;;18.00;99.90;;;;;;5110647;28;20020;-37
2021/09/25 01:27:44;;;;;;;3.45;2.78;;;17.90;99.90;;;;;;5111011;28;20031;-41
2021/09/25 01:30:13;;;;;;;3.47;2.58;;;17.90;99.90;;;;;;5110633;28;20019;-38
2021/09/25 01:32:40;;;;;;;3.20;2.80;;;17.90;99.90;;;;;;5110578;28;20059;-39
2021/09/25 01:35:07;;;;;;;4.45;2.90;;;17.90;99.90;;;;;;5110718;28;20370;-40
2021/09/25 01:37:35;;;;;;;3.63;2.58;;;17.90;99.90;;;;;;5107294;28;20172;-40
2021/09/25 01:40:01;;;;;;;3.78;3.10;;;17.90;99.90;;;;;;5111357;28;20102;-36
2021/09/25 01:42:26;;;;;;;7.18;2.95;;;17.90;99.90;;;;;;5109780;28;20173;-40
2021/09/25 01:44:52;;;;;;;3.33;2.75;;;17.90;99.90;;;;;;5110228;28;20465;-36
2021/09/25 01:47:18;;;;;;;2.92;2.50;;;17.90;99.90;;;;;;5110143;28;20659;-38
2021/09/25 01:49:44;;;;;;;4.85;2.85;;;17.90;99.90;;;;;;5110286;28;20023;-39
2021/09/25 01:52:12;;;;;;;3.42;2.70;;;18.00;99.90;;;;;;5111362;28;20371;-37
2021/09/25 01:54:41;;;;;;;5.82;3.53;;;17.90;99.90;;;;;;5110365;28;20058;-37
2021/09/25 01:57:06;;;;;;;5.75;3.63;;;17.90;99.90;;;;;;5110033;28;20016;-39
2021/09/25 01:59:32;;;;;;;4.45;3.60;;;17.90;99.90;;;;;;5110661;28;20020;-34
2021/09/25 02:01:58;;;;;;;4.63;3.53;;;17.90;99.90;;;;;;5110544;28;20475;-40
2021/09/25 02:04:23;;;;;;;4.18;3.30;;;17.90;99.90;;;;;;5109049;28;20505;-38
2021/09/25 02:06:49;;;;;;;4.80;4.35;;;17.90;99.90;;;;;;5110450;28;20039;-40
2021/09/25 02:09:17;;;;;;;5.65;4.70;;;17.80;99.90;;;;;;5110652;28;20406;-40
2021/09/25 02:11:42;;;;;;;5.20;4.70;;;17.80;99.90;;;;;;5109933;28;20007;-40
2021/09/25 02:14:08;;;;;;;6.32;4.70;;;17.70;99.90;;;;;;5110246;28;20221;-40
2021/09/25 02:16:33;;;;;;;5.47;4.45;;;17.70;99.90;;;;;;5109372;28;20027;-37
2021/09/25 02:18:59;;;;;;;7.05;5.47;;;17.70;99.90;;;;;;5110163;28;20028;-38
2021/09/25 02:21:24;;;;;;;7.57;5.35;;;17.70;99.90;;;;;;5110152;28;20375;-37
2021/09/25 02:23:56;;;;;;;6.90;5.47;;;17.70;99.90;;;;;;5110132;28;20061;-38
2021/09/25 02:26:22;;;;;;;7.53;6.13;;;17.60;99.90;;;;;;5109418;28;20031;-41
2021/09/25 02:28:53;;;;;;;6.07;5.30;;;17.60;99.90;;;;;;5109932;28;20007;-39
2021/09/25 02:31:28;;;;;;;6.57;4.60;;;17.60;99.90;;;;;;5068800;28;20101;-38
2021/09/25 02:33:53;;;;;;;6.28;5.60;;;17.60;99.90;;;;;;5101937;28;20028;-38
2021/09/25 02:36:19;;;;;;;9.13;6.78;;;17.50;99.90;;;;;;5109426;28;20051;-38
2021/09/25 02:38:44;;;;;;;8.48;6.13;;;17.50;99.90;;;;;;5108749;28;20028;-39
2021/09/25 02:41:10;;;;;;;7.93;5.90;;;17.50;99.90;;;;;;5110815;28;20027;-41
2021/09/25 02:43:35;;;;;;;6.68;5.15;;;17.50;99.90;;;;;;5109077;28;20015;-38
2021/09/25 02:46:01;;;;;;;9.43;5.30;;;17.50;99.90;;;;;;5109341;28;20028;-38
2021/09/25 02:48:27;;;;;;;6.85;5.50;;;17.50;99.90;;;;;;5109147;28;20478;-39
2021/09/25 02:50:52;;;;;;;7.57;5.88;;;17.50;99.90;;;;;;5110451;28;20383;-38
2021/09/25 02:53:24;;;;;;;6.07;4.70;;;17.50;99.90;;;;;;5109406;28;20620;-40
2021/09/25 02:55:49;;;;;;;7.72;5.30;;;17.40;99.90;;;;;;5088667;28;20054;-35
2021/09/25 02:58:15;;;;;;;7.75;4.57;;;17.40;99.90;;;;;;5109808;28;20432;-40
2021/09/25 03:00:44;;;;;;;6.70;4.93;;;17.40;99.90;;;;;;5109120;28;20449;-37
2021/09/25 03:03:09;;;;;;;7.85;5.20;;;17.40;99.90;;;;;;5110025;28;20492;-40
2021/09/25 03:05:35;;;;;;;5.75;4.35;;;17.40;99.90;;;;;;5109455;28;20012;-35
2021/09/25 03:08:00;;;;;;;6.25;4.95;;;17.30;99.90;;;;;;5109733;28;20055;-39
2021/09/25 03:10:26;;;;;;;5.72;4.78;;;17.30;99.90;;;;;;5109305;28;20019;-39
2021/09/25 03:12:52;;;;;;;7.88;5.68;;;17.30;99.90;;;;;;5109707;28;20031;-38
2021/09/25 03:15:17;;;;;;;6.78;5.03;;;17.30;99.90;;;;;;5110881;28;20110;-40
2021/09/25 03:17:43;;;;;;;8.85;5.22;;;17.20;99.90;;;;;;5113781;28;20052;-35
2021/09/25 03:20:09;;;;;;;6.40;5.15;;;17.30;99.90;;;;;;5112859;28;20023;-40
2021/09/25 03:22:35;;;;;;;7.05;5.13;;;17.20;99.90;;;;;;5113165;28;20375;-40
2021/09/25 03:25:06;;;;;;;7.32;5.13;;;17.20;99.90;;;;;;5113362;28;20028;-39
2021/09/25 03:27:32;;;;;;;7.55;5.10;;;17.20;99.90;;;;;;5112477;28;20485;-41
2021/09/25 03:29:58;;;;;;;7.75;5.50;;;17.20;99.90;;;;;;5113805;28;20028;-41
2021/09/25 03:32:23;;;;;;;6.95;5.50;;;17.20;99.90;;;;;;5112796;28;20020;-40
2021/09/25 03:34:49;;;;;;;5.65;4.50;;;17.20;99.90;;;;;;5112594;28;20486;-39
2021/09/25 03:37:14;;;;;;;8.68;6.05;;;17.20;99.90;;;;;;5113198;28;20357;-37
2021/09/25 03:39:43;;;;;;;7.75;6.30;;;17.20;99.90;;;;;;5112571;28;20027;-38
2021/09/25 03:42:08;;;;;;;8.55;6.13;;;17.10;99.90;;;;;;5112493;28;20016;-38
2021/09/25 03:44:34;;;;;;;7.55;5.95;;;17.20;99.90;;;;;;5112299;28;20386;-35
2021/09/25 03:46:59;;;;;;;7.93;5.97;;;17.10;99.90;;;;;;5113501;28;20016;-39
2021/09/25 03:49:25;;;;;;;8.55;6.30;;;17.10;99.90;;;;;;5112172;28;20016;-38
2021/09/25 03:51:51;;;;;;;6.80;5.93;;;17.20;99.90;;;;;;5113113;28;20023;-36
2021/09/25 03:54:22;;;;;;;7.78;6.00;;;17.20;99.90;;;;;;5113042;28;20031;-37
2021/09/25 03:56:51;;;;;;;9.33;6.87;;;17.20;99.90;;;;;;5111807;28;20045;-39
2021/09/25 03:59:16;;;;;;;8.52;6.20;;;17.20;99.90;;;;;;5111736;28;20035;-37
2021/09/25 04:01:42;;;;;;;7.03;5.45;;;17.20;99.90;;;;;;5113071;28;20364;-36
2021/09/25 04:04:07;;;;;;;8.32;6.30;;;17.20;99.90;;;;;;5112391;28;20023;-34
2021/09/25 04:06:33;;;;;;;7.65;6.00;;;17.20;99.90;;;;;;5111978;28;20020;-35
2021/09/25 04:08:59;;;;;;;8.02;6.40;;;17.20;99.90;;;;;;5112251;28;20128;-36
2021/09/25 04:11:25;;;;;;;8.40;6.20;;;17.20;99.90;;;;;;5112657;28;20016;-39
2021/09/25 04:13:50;;;;;;;8.80;6.53;;;17.20;99.90;;;;;;5112582;28;20063;-35
2021/09/25 04:16:16;;;;;;;8.02;6.18;;;17.20;99.90;;;;;;5112027;28;20032;-34
2021/09/25 04:18:41;;;;;;;8.23;6.78;;;17.20;99.90;;;;;;5110968;28;20043;-39
2021/09/25 04:21:07;;;;;;;9.45;6.60;;;17.20;99.90;;;;;;5112394;28;20020;-38
2021/09/25 04:23:32;;;;;;;7.28;5.88;;;17.20;99.90;;;;;;5111896;28;20842;-39
2021/09/25 04:26:04;;;;;;;8.57;6.22;;;17.20;99.90;;;;;;5112449;28;20032;-38
2021/09/25 04:28:39;;;;;;;10.83;6.93;;;17.20;99.90;;;;;;5105542;28;20041;-38
2021/09/25 04:31:04;;;;;;;8.88;6.88;;;17.20;99.90;;;;;;5112246;28;20258;-37
2021/09/25 04:33:30;;;;;;;8.02;6.15;;;17.20;99.90;;;;;;5111177;28;20027;-40
2021/09/25 04:35:55;;;;;;;8.05;6.30;;;17.20;99.90;;;;;;5112392;28;20028;-39
2021/09/25 04:38:33;;;;;;;8.27;6.60;;;17.20;99.90;;;;;;5110922;28;20031;-40
2021/09/25 04:40:59;;;;;;;10.02;6.70;;;17.20;99.90;;;;;;5112850;28;20027;-39
2021/09/25 04:43:24;;;;;;;6.90;5.93;;;17.20;99.90;;;;;;5111243;28;20375;-38
2021/09/25 04:45:50;;;;;;;9.85;6.63;;;17.20;99.90;;;;;;5111343;28;20027;-37
2021/09/25 04:48:15;;;;;;;8.38;6.68;;;17.20;99.90;;;;;;5112011;28;20026;-40
2021/09/25 04:50:41;;;;;;;9.07;6.28;;;17.10;99.90;;;;;;5111544;28;20110;-37
2021/09/25 04:53:12;;;;;;;9.27;6.90;;;17.20;99.90;;;;;;5111434;28;20355;-37
2021/09/25 04:55:42;;;;;;;9.98;6.38;;;17.10;99.90;;;;;;5107806;28;20410;-38
2021/09/25 04:58:08;;;;;;;10.85;6.10;;;17.10;99.90;;;;;;5111085;28;20035;-34
2021/09/25 05:00:41;;;;;;;7.82;6.50;;;17.10;99.90;;;;;;5111066;28;20027;-39
2021/09/25 05:03:06;;;;;;;10.23;6.47;;;17.20;99.90;;;;;;5111789;28;20028;-36
2021/09/25 05:05:35;;;;;;;9.75;7.38;;;17.20;99.90;;;;;;5110308;28;20024;-39
2021/09/25 05:08:00;;;;;;;9.05;7.50;;;17.10;99.90;;;;;;5111517;28;20028;-39
2021/09/25 05:10:26;;;;;;;8.93;7.32;;;17.10;99.90;;;;;;5111080;28;20019;-38
2021/09/25 05:12:54;;;;;;;12.70;8.20;;;17.10;99.90;;;;;;5110537;28;20027;-39
2021/09/25 05:15:20;;;;;;;10.48;7.03;;;17.10;99.90;;;;;;5110735;28;20024;-38
2021/09/25 05:17:45;;;;;;;11.52;7.38;;;17.10;99.90;;;;;;5111463;28;20095;-40
2021/09/25 05:20:11;;;;;;;9.02;6.82;;;17.10;99.90;;;;;;5110464;28;20414;-39
2021/09/25 05:22:37;;;;;;;9.32;6.57;;;17.10;99.90;;;;;;5110905;28;20312;-40
2021/09/25 05:25:12;;;;;;;9.68;6.43;;;17.10;99.90;;;;;;5111359;28;20016;-39
2021/09/25 05:27:37;;;;;;;11.60;7.20;;;17.10;99.90;;;;;;5110570;28;20023;-36
2021/09/25 05:30:05;;;;;;;10.55;7.18;;;17.10;99.90;;;;;;5110784;28;20024;-39
2021/09/25 05:32:31;;;;;;;8.68;6.75;;;17.10;99.90;;;;;;5110292;28;20451;-39
2021/09/25 05:34:56;;;;;;;9.65;6.03;;;17.10;99.90;;;;;;5108929;28;20070;-39
2021/09/25 05:37:22;;;;;;;8.68;6.60;;;17.10;99.90;;;;;;5110642;28;20020;-40
2021/09/25 05:39:47;;;;;;;8.07;6.32;;;17.10;99.90;;;;;;5110270;28;20016;-38
2021/09/25 05:42:15;;;;;;;9.02;6.28;;;17.10;99.90;;;;;;5110515;28;20103;-40
2021/09/25 05:44:45;;;;;;;8.68;6.30;;;17.10;99.90;;;;;;5110704;28;20012;-38
2021/09/25 05:47:12;;;;;;;6.85;5.82;;;17.10;99.90;;;;;;5110216;28;20042;-40
2021/09/25 05:49:38;;;;;;;7.35;6.05;;;17.10;99.90;;;;;;5109654;28;20466;-38
2021/09/25 05:52:16;;;;;;;7.88;6.35;;;17.10;99.90;;;;;;5111081;28;20468;-40
2021/09/25 05:54:42;;;;;;;8.95;6.13;;;17.10;99.90;;;;;;5110343;28;20028;-40
2021/09/25 05:57:11;;;;;;;8.30;6.05;;;17.20;99.90;;;;;;5110434;28;20022;-37
2021/09/25 05:59:37;;;;;;;9.65;6.25;;;17.10;99.90;;;;;;5109572;28;20023;-36
2021/09/25 06:02:03;;;;;;;6.85;5.43;;;17.20;99.90;;;;;;5110582;28;20581;-36
2021/09/25 06:04:30;;;;;;;6.72;5.47;;;17.20;99.90;;;;;;5110659;28;20015;-34
2021/09/25 06:06:56;;;;;;;6.50;5.32;;;17.20;99.90;;;;;;5110773;28;20020;-39
2021/09/25 06:09:21;;;;;;;7.03;5.57;;;17.20;99.90;;;;;;5109412;28;20169;-40
2021/09/25 06:11:47;;;;;;;5.93;5.32;;;17.20;99.90;;;;;;5110461;28;20051;-37
2021/09/25 06:14:13;;;;;;;6.03;5.43;;;17.30;99.90;;;;;;5110647;28;20046;-39
2021/09/25 06:16:38;;;;;;;8.35;5.93;;;17.30;99.90;;;;;;5109617;28;20055;-41
2021/09/25 06:19:04;;;;;;;6.65;5.40;;;17.30;99.90;;;;;;5110648;28;20395;-39
2021/09/25 06:21:29;;;;;;;7.05;5.70;;;17.30;99.90;;;;;;5110236;28;20038;-39
2021/09/25 06:23:55;;;;;;;7.18;5.63;;;17.30;99.90;;;;;;5109713;28;20302;-34
2021/09/25 06:26:20;;;;;;;6.72;6.03;;;17.30;99.90;;;;;;5109796;28;20034;-38
2021/09/25 06:28:49;;;;;;;7.97;5.82;;;17.30;99.90;;;;;;5110626;28;20429;-40
2021/09/25 06:31:14;;;;;;;6.47;5.47;;;17.30;99.90;;;;;;5109164;28;20024;-39
2021/09/25 06:33:42;;;;;;;6.05;5.07;;;17.30;99.90;;;;;;5110441;28;20039;-37
2021/09/25 06:36:07;;;;;;;6.78;5.13;;;17.30;99.90;;;;;;5110072;28;20455;-36
2021/09/25 06:38:42;;;;;;;7.95;5.50;;;17.30;99.90;;;;;;5109220;28;20059;-36
2021/09/25 06:41:26;;;;;;;6.50;4.70;;;17.40;99.90;;;;;;5110597;28;20043;-40
2021/09/25 06:43:51;;;;;;;6.82;4.97;;;17.40;99.90;;;;;;5109886;28;20031;-38
2021/09/25 06:46:17;;;;;;;7.25;5.10;;;17.40;99.90;;;;;;5109879;28;20069;-39
2021/09/25 06:48:43;;;;;;;5.78;5.15;;;17.40;99.90;;;;;;5110654;28;20020;-38
2021/09/25 06:51:09;;;;;;;8.85;5.97;;;17.50;99.90;;;;;;5109127;28;20028;-35
2021/09/25 06:53:34;;;;;;;6.95;5.15;;;17.50;99.90;;;;;;5112046;28;20032;-39
2021/09/25 06:56:00;;;;;;;6.53;5.43;;;17.50;99.90;;;;;;5113575;28;20096;-40
2021/09/25 06:58:25;;;;;;;5.38;4.78;;;17.50;99.90;;;;;;5112560;28;20019;-37
2021/09/25 07:00:51;;;;;;;6.25;5.07;;;17.60;99.90;;;;;;5113319;28;20028;-38
2021/09/25 07:03:19;;;;;;;6.78;5.10;;;17.60;99.90;;;;;;5106213;28;20020;-35
2021/09/25 07:05:45;;;;;;;8.82;5.68;;;17.60;99.90;;;;;;5113121;28;20432;-38
2021/09/25 07:08:13;;;;;;;6.32;5.20;;;17.70;99.90;;;;;;5112504;28;20611;-39
2021/09/25 07:10:38;;;;;;;6.93;5.47;;;17.70;99.90;;;;;;5112356;28;20116;-38
2021/09/25 07:13:04;;;;;;;6.65;4.85;;;17.80;99.90;;;;;;5112189;28;20065;-37
2021/09/25 07:15:31;;;;;;;7.65;5.18;;;17.80;99.90;;;;;;5111330;28;20436;-38
2021/09/25 07:17:57;;;;;;;8.80;5.38;;;17.80;99.90;;;;;;5104537;28;20023;-38
2021/09/25 07:20:24;;;;;;;5.22;4.72;;;17.90;99.90;;;;;;5107110;28;20043;-35
2021/09/25 07:22:52;;;;;;;6.32;5.10;;;17.90;99.90;;;;;;5112805;28;20437;-38
2021/09/25 07:25:20;;;;;;;9.40;6.18;;;17.90;99.90;;;;;;5110601;28;20018;-39
2021/09/25 07:27:55;;;;;;;8.60;6.05;;;18.00;99.90;;;;;;5112433;28;20019;-40
2021/09/25 07:30:22;;;;;;;6.60;5.80;;;18.00;99.90;;;;;;5111337;28;20394;-41
2021/09/25 07:32:48;;;;;;;7.13;5.85;;;18.00;99.90;;;;;;5112704;28;20454;-39
2021/09/25 07:35:15;;;;;;;8.20;6.13;;;18.00;99.90;;;;;;5102946;28;20032;-40
2021/09/25 07:37:44;;;;;;;8.48;7.03;;;18.00;99.90;;;;;;5095585;28;20419;-34
2021/09/25 07:40:14;;;;;;;8.70;6.57;;;18.00;99.90;;;;;;5111773;28;20092;-39
2021/09/25 07:42:39;;;;;;;7.95;6.35;;;18.00;99.90;;;;;;5111832;28;20083;-38
2021/09/25 07:45:08;;;;;;;8.70;6.30;;;18.00;99.90;;;;;;5104510;28;20543;-41
2021/09/25 07:47:37;;;;;;;8.38;6.78;;;18.00;99.90;;;;;;5110029;28;20098;-39
2021/09/25 07:50:07;;;;;;;8.35;6.15;;;18.00;99.90;;;;;;5091750;28;20058;-40
2021/09/25 07:52:33;;;;;;;7.40;5.93;;;18.00;99.90;;;;;;5091064;28;20341;-40
2021/09/25 07:54:59;;;;;;;7.28;5.43;;;18.10;99.90;;;;;;5111209;28;20042;-39
2021/09/25 07:57:26;;;;;;;8.60;6.05;;;18.10;99.90;;;;;;5110914;28;20456;-39
2021/09/25 07:59:52;;;;;;;8.75;6.78;;;18.10;99.90;;;;;;5112594;28;20386;-40
2021/09/25 08:02:17;;;;;;;10.18;6.95;;;18.10;99.90;;;;;;5111349;28;20020;-39
2021/09/25 08:04:48;;;;;;;8.82;6.95;;;18.10;99.90;;;;;;5112783;28;20031;-40
2021/09/25 08:07:14;;;;;;;11.10;7.25;;;18.10;99.90;;;;;;5112712;28;20028;-40
2021/09/25 08:09:39;;;;;;;9.63;7.47;;;18.20;99.90;;;;;;5112259;28;20028;-40
2021/09/25 08:12:05;;;;;;;11.13;7.90;;;18.20;99.90;;;;;;5112878;28;20020;-38
2021/09/25 08:14:31;;;;;;;10.80;7.40;;;18.20;99.90;;;;;;5111739;28;20540;-38
2021/09/25 08:16:57;;;;;;;8.43;6.80;;;18.20;99.90;;;;;;5111334;28;20105;-38
2021/09/25 08:19:25;;;;;;;6.07;5.47;;;18.30;99.90;;;;;;5096781;28;20040;-40
2021/09/25 08:21:57;;;;;;;7.85;6.45;;;18.30;99.90;;;;;;5112714;28;20455;-40
2021/09/25 08:24:22;;;;;;;7.67;6.17;;;18.40;99.90;;;;;;5111205;28;20016;-39
2021/09/25 08:26:51;;;;;;;8.48;6.53;;;18.40;99.90;;;;;;5112896;28;20019;-38
2021/09/25 08:29:16;;;;;;;8.18;6.28;;;18.50;99.90;;;;;;5111249;28;20099;-43
2021/09/25 08:31:42;;;;;;;7.97;6.45;;;18.50;99.90;;;;;;5112119;28;20107;-41
2021/09/25 08:34:07;;;;;;;10.32;6.57;;;18.60;99.90;;;;;;5111842;28;20067;-40
2021/09/25 08:36:33;;;;;;;8.23;6.18;;;18.60;99.90;;;;;;5110913;28;20037;-39
2021/09/25 08:38:58;;;;;;;10.35;7.30;;;18.60;99.90;;;;;;5103339;28;20135;-41
2021/09/25 08:41:24;;;;;;;9.00;6.85;;;18.60;99.90;;;;;;5107165;28;20561;-35
2021/09/25 08:43:51;;;;;;;7.60;6.78;;;18.60;99.90;;;;;;5111452;28;20027;-39
2021/09/25 08:46:17;;;;;;;9.27;7.57;;;18.60;99.90;;;;;;5111497;28;20031;-40
2021/09/25 08:48:42;;;;;;;10.00;6.57;;;18.60;99.90;;;;;;5107132;28;20020;-40
2021/09/25 08:51:09;;;;;;;7.50;5.90;;;18.60;99.90;;;;;;5097361;28;20040;-39
2021/09/25 08:53:36;;;;;;;7.22;6.35;;;18.60;99.90;;;;;;5111592;28;20084;-40
2021/09/25 08:56:02;;;;;;;9.23;5.97;;;18.60;99.90;;;;;;5112095;28;20110;-38
2021/09/25 08:58:28;;;;;;;7.55;6.55;;;18.70;99.90;;;;;;5110167;28;20019;-42
2021/09/25 09:00:55;;;;;;;8.18;7.03;;;18.70;99.90;;;;;;5110406;28;20023;-39
2021/09/25 09:03:44;;;;;;;9.73;6.38;;;18.70;99.90;;;;;;5102537;28;20046;-40
2021/09/25 09:06:19;;;;;;;10.40;7.40;;;18.80;99.90;;;;;;5099994;28;20020;-43
2021/09/25 09:08:49;;;;;;;7.93;6.03;;;18.80;99.90;;;;;;5071154;28;20150;-38
2021/09/25 09:11:16;;;;;;;9.88;6.78;;;18.80;99.90;;;;;;5087324;28;20120;-36
2021/09/25 09:13:46;;;;;;;8.43;6.75;;;18.80;99.90;;;;;;5110496;28;20470;-40
2021/09/25 09:16:13;;;;;;;9.75;7.57;;;18.80;99.90;;;;;;5082474;28;20032;-39
2021/09/25 09:18:42;;;;;;;12.88;7.80;;;18.80;99.90;;;;;;5077192;28;20040;-39
2021/09/25 09:21:10;;;;;;;11.30;8.85;;;18.80;99.90;;;;;;5085448;28;20051;-38
2021/09/25 09:23:43;;;;;;;10.00;7.82;;;18.80;99.90;;;;;;5094930;28;20123;-40
2021/09/25 09:26:12;;;;;;;10.20;8.02;;;18.80;99.90;;;;;;5075886;28;20019;-39
2021/09/25 09:28:39;;;;;;;10.23;7.80;;;18.80;99.90;;;;;;5096288;28;20475;-39
2021/09/25 09:31:07;;;;;;;10.80;7.80;;;18.80;99.90;;;;;;5074580;28;20105;-39
2021/09/25 09:33:40;;;;;;;9.63;6.97;;;18.90;99.90;;;;;;5080467;28;20059;-35
2021/09/25 09:36:21;;;;;;;9.73;7.13;;;19.00;99.90;;;;;;5082682;28;20525;-38
2021/09/25 09:39:09;;;;;;;8.23;6.72;;;19.00;99.90;;;;;;5103261;28;20178;-40
2021/09/25 09:41:54;;;;;;;8.07;7.22;;;19.00;99.90;;;;;;5086592;28;20064;-38
2021/09/25 09:44:29;;;;;;;13.27;8.25;;;19.10;99.90;;;;;;5095609;28;20126;-38
2021/09/25 09:47:10;;;;;;;8.60;7.30;;;19.10;99.90;;;;;;5087895;28;20030;-40
2021/09/25 09:49:39;;;;;;;11.63;7.30;;;19.20;99.90;;;;;;5089674;28;20023;-38
2021/09/25 09:52:21;;;;;;;9.05;7.13;;;19.30;99.90;;;;;;5110253;28;20083;-37
2021/09/25 09:54:49;;;;;;;8.35;6.82;;;19.30;99.90;;;;;;5087763;28;20066;-37
2021/09/25 09:57:19;;;;;;;10.00;7.38;;;19.40;99.90;;;;;;5110010;28;20090;-35
2021/09/25 09:59:46;;;;;;;12.40;8.20;;;19.40;99.90;;;;;;5082896;28;20016;-35
2021/09/25 10:02:12;;;;;;;10.27;8.13;;;19.40;99.90;;;;;;5075034;28;20029;-39
2021/09/25 10:04:41;;;;;;;10.80;8.68;;;19.50;99.90;;;;;;5082980;28;20036;-39
2021/09/25 10:07:07;;;;;;;12.18;8.68;;;19.50;99.90;;;;;;5079876;28;20031;-40
2021/09/25 10:09:35;;;;;;;8.60;7.20;;;19.50;99.90;;;;;;5103722;28;20024;-39
2021/09/25 10:12:12;;;;;;;10.50;7.30;;;19.60;99.90;;;;;;5110184;28;20031;-40
2021/09/25 10:14:41;;;;;;;9.55;7.90;;;19.60;99.90;;;;;;5109236;28;20085;-41
2021/09/25 10:17:09;;;;;;;9.05;6.57;;;19.70;99.90;;;;;;5110704;28;20104;-42
2021/09/25 10:19:37;;;;;;;10.80;6.97;;;19.70;99.90;;;;;;5109241;28;20063;-42
2021/09/25 10:22:23;;;;;;;10.00;6.82;;;19.70;99.90;;;;;;5108456;28;20031;-37
2021/09/25 10:25:03;;;;;;;10.30;7.75;;;19.80;99.90;;;;;;5107991;28;20028;-37
2021/09/25 10:27:35;;;;;;;11.07;8.98;;;19.80;99.90;;;;;;5107200;28;20031;-40
2021/09/25 10:30:04;;;;;;;11.45;8.30;;;19.90;99.90;;;;;;5109335;28;20469;-39
2021/09/25 10:32:32;;;;;;;10.35;8.13;;;19.90;99.90;;;;;;5101747;28;20024;-40
2021/09/25 10:35:06;;;;;;;12.38;8.80;;;19.90;99.90;;;;;;5103269;28;20053;-36
2021/09/25 10:37:38;;;;;;;8.93;7.45;;;19.90;99.90;;;;;;5068663;28;20046;-38
2021/09/25 10:40:10;;;;;;;9.75;7.05;;;20.00;99.90;;;;;;5100203;28;20019;-36
2021/09/25 10:42:59;;;;;;;10.02;7.15;;;20.10;99.90;;;;;;5109583;28;20024;-40
2021/09/25 10:45:41;;;;;;;10.82;8.88;;;20.20;99.90;;;;;;5108305;28;20031;-41
2021/09/25 10:48:16;;;;;;;10.05;8.20;;;20.30;99.90;;;;;;5069956;28;20069;-40
2021/09/25 10:50:53;;;;;;;12.98;9.20;;;20.30;99.90;;;;;;5104013;28;20083;-38
2021/09/25 10:53:26;;;;;;;10.80;8.80;;;20.30;99.90;;;;;;5109594;28;20039;-39
2021/09/25 10:55:53;;;;;;;10.85;9.40;;;20.40;99.90;;;;;;5097019;28;20028;-37
2021/09/25 10:58:27;;;;;;;12.25;9.35;;;20.40;99.90;;;;;;5103300;28;20145;-40
2021/09/25 11:01:14;;;;;;;9.60;7.50;;;20.40;99.90;;;;;;5078274;28;20502;-40
2021/09/25 11:03:43;;;;;;;9.82;8.57;;;20.50;99.90;;;;;;5081240;28;20027;-40
2021/09/25 11:06:14;;;;;;;10.70;8.40;;;20.60;99.90;;;;;;5084516;28;20036;-38
2021/09/25 11:09:08;;;;;;;9.90;7.70;;;20.60;99.90;;;;;;5086598;28;20024;-39
2021/09/25 11:11:42;;;;;;;9.50;7.32;;;20.70;99.90;;;;;;5086001;28;20086;-37
2021/09/25 11:14:15;;;;;;;9.45;7.97;;;20.80;99.90;;;;;;5077780;28;20028;-37
2021/09/25 11:17:11;;;;;;;9.57;7.85;;;20.80;99.90;;;;;;5101137;28;20524;-38
2021/09/25 11:19:53;;;;;;;13.70;9.07;;;20.90;99.90;;;;;;5082089;28;20400;-38
2021/09/25 11:22:34;;;;;;;14.27;10.82;;;21.00;99.90;;;;;;5086964;28;20031;-37
2021/09/25 11:25:07;;;;;;;13.43;9.90;;;21.00;99.90;;;;;;5087209;28;20028;-41
2021/09/25 11:27:38;;;;;;;13.05;9.07;;;21.00;99.90;;;;;;5099009;28;20467;-37
2021/09/25 11:30:14;;;;;;;12.52;8.98;;;21.10;99.90;;;;;;5098732;28;20115;-38
2021/09/25 11:32:46;;;;;;;10.38;8.07;;;21.20;99.90;;;;;;5076375;28;20040;-40
2021/09/25 11:35:24;;;;;;;11.15;9.50;;;21.20;99.90;;;;;;5079647;28;20036;-40
2021/09/25 11:38:00;;;;;;;11.07;8.68;;;21.20;99.90;;;;;;5072600;28;20034;-37
2021/09/25 11:40:36;;;;;;;8.90;7.00;;;21.30;99.90;;;;;;5078654;28;20430;-41
2021/09/25 11:43:10;;;;;;;11.55;8.45;;;21.30;99.90;;;;;;5085791;28;20024;-37
2021/09/25 11:45:38;;;;;;;10.35;8.70;;;21.40;99.90;;;;;;5078296;28;20027;-34
2021/09/25 11:48:05;;;;;;;11.77;8.90;;;21.40;99.90;;;;;;5090128;28;20584;-37
2021/09/25 11:50:34;;;;;;;12.48;9.85;;;21.50;99.90;;;;;;5080250;28;20028;-42
2021/09/25 11:53:05;;;;;;;12.40;9.40;;;21.50;99.90;;;;;;5088590;28;20054;-38
2021/09/25 11:55:33;;;;;;;14.07;10.40;;;21.50;99.90;;;;;;5083038;28;21172;-35
2021/09/25 11:58:05;;;;;;;12.70;9.75;;;21.50;99.90;;;;;;5086850;28;20480;-39
2021/09/25 12:00:46;;;;;;;10.93;8.32;;;21.50;99.90;;;;;;5074677;28;20568;-40
2021/09/25 12:03:13;;;;;;;12.43;9.52;;;21.60;99.90;;;;;;5086844;28;20488;-39
2021/09/25 12:05:41;;;;;;;16.02;9.80;;;21.70;99.90;;;;;;5100706;28;20575;-40
2021/09/25 12:08:09;;;;;;;13.38;9.35;;;21.70;99.90;;;;;;5086755;28;20683;-36
2021/09/25 12:10:39;;;;;;;9.10;7.32;;;21.80;99.90;;;;;;5079523;28;20082;-40
2021/09/25 12:13:09;;;;;;;9.90;7.88;;;21.90;99.90;;;;;;5084240;28;20800;-38
2021/09/25 12:15:39;;;;;;;9.68;7.75;;;21.90;99.90;;;;;;5078340;28;20021;-37
2021/09/25 12:18:25;;;;;;;12.65;8.15;;;21.90;99.90;;;;;;5080663;28;20404;-40
2021/09/25 12:21:01;;;;;;;11.20;7.88;;;22.00;99.90;;;;;;5081229;28;20040;-41
2021/09/25 12:23:31;;;;;;;9.88;8.25;;;22.00;99.90;;;;;;5072702;28;20035;-40
2021/09/25 12:25:57;;;;;;;12.38;9.18;;;22.00;99.90;;;;;;5080302;28;20024;-39
2021/09/25 12:28:31;;;;;;;11.35;10.15;;;22.00;99.90;;;;;;5095940;28;20115;-40
2021/09/25 12:31:01;;;;;;;11.23;8.35;;;22.00;99.90;;;;;;5090629;28;20008;-40
2021/09/25 12:33:27;;;;;;;14.57;10.40;;;22.00;99.90;;;;;;5080083;28;20055;-40
2021/09/25 12:35:58;;;;;;;12.57;9.43;;;22.00;99.90;;;;;;5084335;28;20444;-41
2021/09/25 12:38:28;;;;;;;11.18;8.48;;;22.10;99.90;;;;;;5092424;28;20031;-36
2021/09/25 12:41:04;;;;;;;14.15;10.13;;;22.20;99.90;;;;;;5097241;28;20031;-37
2021/09/25 12:43:34;;;;;;;12.23;10.18;;;22.20;99.90;;;;;;5077862;28;20182;-37
2021/09/25 12:46:15;;;;;;;12.95;10.60;;;22.20;99.90;;;;;;5081044;28;20048;-38
2021/09/25 12:49:09;;;;;;;13.82;10.45;;;22.20;99.90;;;;;;5092217;28;20016;-38
2021/09/25 12:52:00;;;;;;;12.32;8.70;;;22.20;99.90;;;;;;5082626;28;20021;-35